createdAt,value
2018-06-08T00:01:42.116Z,95839.4
2018-06-08T00:06:38.768Z,95833.1
2018-06-08T00:11:35.443Z,95830.7
2018-06-08T00:16:31.858Z,95832.6
2018-06-08T00:21:28.476Z,95748.4
2018-06-08T00:26:25.036Z,95834.1
2018-06-08T00:31:21.832Z,95827.8
2018-06-08T00:36:18.515Z,95829.6
2018-06-08T00:41:14.860Z,95827.1
2018-06-08T00:46:11.099Z,95745.2
2018-06-08T00:51:07.597Z,95742.1
2018-06-08T00:56:04.203Z,95828.3
2018-06-08T01:01:00.769Z,95741.4
2018-06-08T01:05:57.275Z,95751.8
2018-06-08T01:10:53.682Z,95742.2
2018-06-08T01:15:49.986Z,95752.1
2018-06-08T01:20:46.350Z,95835.3
2018-06-08T01:25:42.299Z,95823.4
2018-06-08T01:30:38.695Z,95812.6
2018-06-08T01:35:34.948Z,95808.9
2018-06-08T01:40:31.195Z,95817.6
2018-06-08T01:45:27.500Z,95820.4
2018-06-08T01:50:24.206Z,95817.9
2018-06-08T01:55:20.889Z,95738.4
2018-06-08T02:00:16.750Z,95730.6
2018-06-08T02:05:13.158Z,95826.1
2018-06-08T02:10:09.596Z,95730.1
2018-06-08T02:15:05.523Z,95727.7
2018-06-08T02:20:02.240Z,95817.5
2018-06-08T02:24:59.240Z,95800.3
2018-06-08T02:29:55.495Z,95748.1
2018-06-08T02:34:52.357Z,95753
2018-06-08T02:39:48.935Z,95850.7
2018-06-08T02:44:45.543Z,95857.2
2018-06-08T02:49:41.757Z,95905
2018-06-08T02:54:38.214Z,95855.9
2018-06-08T02:59:34.840Z,95734.4
2018-06-08T03:04:31.182Z,95768
2018-06-08T03:09:27.741Z,95885.7
2018-06-08T03:14:23.709Z,95860.1
2018-06-08T03:19:20.333Z,95779.8
2018-06-08T03:24:16.826Z,95927.2
2018-06-08T03:29:13.209Z,95930.7
2018-06-08T03:34:09.860Z,95974.8
2018-06-08T03:39:06.645Z,95855.8
2018-06-08T03:44:02.990Z,95964.6
2018-06-08T03:48:59.654Z,95866.1
2018-06-08T03:53:55.823Z,95890.8
2018-06-08T03:58:52.413Z,95889.8
2018-06-08T04:03:48.828Z,95860.2
2018-06-08T04:08:45.331Z,95934.3
2018-06-08T04:13:41.919Z,95945.3
2018-06-08T04:18:38.148Z,95769.7
2018-06-08T04:23:34.700Z,95777.7
2018-06-08T04:28:31.350Z,95775.1
2018-06-08T04:33:27.489Z,95873.4
2018-06-08T04:38:23.713Z,95876.7
2018-06-08T04:43:20.015Z,95895.1
2018-06-08T04:48:16.383Z,95885.5
2018-06-08T04:53:12.804Z,95807
2018-06-08T04:58:08.972Z,94970.9
2018-06-08T05:03:05.208Z,95905.9
2018-06-08T05:08:01.374Z,95900.8
2018-06-08T05:12:58.074Z,95897.8
2018-06-08T05:17:53.807Z,95896.9
2018-06-08T05:22:50.037Z,95806.9
2018-06-08T05:27:46.331Z,95903.2
2018-06-08T05:32:42.604Z,95905.9
2018-06-08T05:37:38.923Z,95816.1
2018-06-08T05:42:35.181Z,95908.3
2018-06-08T05:47:31.359Z,95897.9
2018-06-08T05:52:27.788Z,95813.6
2018-06-08T05:57:24.097Z,95817.3
2018-06-08T06:02:20.462Z,95806.3
2018-06-08T06:07:17.190Z,95812.6
2018-06-08T06:12:14.628Z,95892.4
2018-06-08T06:17:10.347Z,95802
2018-06-08T06:22:06.726Z,95897.1
2018-06-08T06:27:03.172Z,95871.5
2018-06-08T06:31:59.463Z,95890.7
2018-06-08T06:36:55.813Z,95896.4
2018-06-08T06:41:52.169Z,95894.5
2018-06-08T06:46:47.282Z,95892.9
2018-06-08T06:51:43.663Z,95787.2
2018-06-08T06:56:40.325Z,95883.1
2018-06-08T07:01:36.378Z,95788.6
2018-06-08T07:06:32.085Z,95876.9
2018-06-08T07:11:28.682Z,95786.7
2018-06-08T07:16:25.183Z,95870
2018-06-08T07:21:21.773Z,95777.4
2018-06-08T07:26:18.296Z,95781.7
2018-06-08T07:31:14.621Z,95860.2
2018-06-08T07:36:10.908Z,95771.3
2018-06-08T07:41:07.475Z,95852.8
2018-06-08T07:46:03.837Z,95763
2018-06-08T07:51:00.455Z,95760.4
2018-06-08T07:55:56.871Z,95842.3
2018-06-08T08:00:53.414Z,95844.9
2018-06-08T08:05:50.072Z,95838.8
2018-06-08T08:10:46.669Z,95838
2018-06-08T08:15:43.158Z,95714.1
2018-06-08T08:20:39.842Z,95827.2
2018-06-08T08:25:36.303Z,95823.4
2018-06-08T08:30:33.025Z,95814.6
2018-06-08T08:35:29.633Z,95800.8
2018-06-08T08:40:26.242Z,95796.2
2018-06-08T08:45:23.050Z,95794.7
2018-06-08T08:50:19.743Z,95794.5
2018-06-08T08:55:15.588Z,95795.9
2018-06-08T09:00:12.252Z,95788.8
2018-06-08T09:05:08.873Z,95780.9
2018-06-08T09:10:05.890Z,95781.8
2018-06-08T09:15:02.218Z,95663.9
2018-06-08T09:19:58.845Z,95764.3
2018-06-08T09:24:55.520Z,95829.4
2018-06-08T09:29:52.065Z,95761.5
2018-06-08T09:34:48.607Z,95754
2018-06-08T09:39:45.172Z,95748.4
2018-06-08T09:44:42.237Z,95668.3
2018-06-08T09:49:39.078Z,95742.9
2018-06-08T09:54:35.897Z,95741.4
2018-06-08T09:59:32.459Z,95652.6
2018-06-08T10:04:28.925Z,95725.8
2018-06-08T10:09:25.698Z,95641.6
2018-06-08T10:14:22.577Z,95642
2018-06-08T10:19:18.726Z,95713
2018-06-08T10:24:15.242Z,95623.3
2018-06-08T10:29:12.630Z,95701.9
2018-06-08T10:34:09.179Z,95700.4
2018-06-08T10:39:05.871Z,95699.5
2018-06-08T10:44:02.221Z,95619.7
2018-06-08T10:48:58.588Z,95685.1
2018-06-08T10:53:55.421Z,95674.9
2018-06-08T10:58:51.938Z,95674.3
2018-06-08T11:03:48.249Z,95667.7
2018-06-08T11:08:45.004Z,95666.5
2018-06-08T11:13:42.000Z,95664.9
2018-06-08T11:18:38.906Z,95650.2
2018-06-08T11:23:35.670Z,95647.1
2018-06-08T11:28:32.217Z,95642.3
2018-06-08T11:33:28.950Z,95640
2018-06-08T11:38:25.434Z,95633.1
2018-06-08T11:43:22.009Z,95631.5
2018-06-08T11:48:18.035Z,95613.4
2018-06-08T11:53:14.342Z,95603.2
2018-06-08T11:58:11.624Z,95616.2
2018-06-08T12:03:08.462Z,95602.1
2018-06-08T12:08:04.321Z,95599.9
2018-06-08T12:13:00.972Z,95590.3
2018-06-08T12:17:58.090Z,95585.2
2018-06-08T12:22:54.758Z,95578.9
2018-06-08T12:27:51.576Z,95570.7
2018-06-08T12:32:48.623Z,95561.8
2018-06-08T12:37:45.281Z,95562.4
2018-06-08T12:42:41.893Z,95557.6
2018-06-08T12:47:38.323Z,95550.5
2018-06-08T12:52:35.032Z,95547.1
2018-06-08T12:57:31.831Z,95537.4
2018-06-08T13:02:28.246Z,95531.6
2018-06-08T13:07:24.926Z,95525
2018-06-08T13:12:21.456Z,95516.7
2018-06-08T13:17:18.237Z,95511.2
2018-06-08T13:22:15.312Z,95512.9
2018-06-08T13:27:11.942Z,95499.9
2018-06-08T13:32:08.465Z,95503.2
2018-06-08T13:37:05.110Z,95498
2018-06-08T13:42:01.724Z,95495.5
2018-06-08T13:46:58.403Z,95487.9
2018-06-08T13:51:55.107Z,95471.6
2018-06-08T13:56:51.733Z,95473.9
2018-06-08T14:01:48.111Z,95454.9
2018-06-08T14:06:44.902Z,95453.4
2018-06-08T14:11:40.525Z,95444.7
2018-06-08T14:16:37.085Z,95440.3
2018-06-08T14:21:33.584Z,95428.5
2018-06-08T14:26:30.383Z,95484
2018-06-08T14:31:26.914Z,95409
2018-06-08T14:36:23.374Z,95402.9
2018-06-08T14:41:19.965Z,95403.2
2018-06-08T14:46:16.434Z,95395.8
2018-06-08T14:51:13.195Z,95417.2
2018-06-08T14:56:09.617Z,95397.3
2018-06-08T15:01:06.218Z,95397.3
2018-06-08T15:06:02.322Z,95387.2
2018-06-08T15:10:58.990Z,95385.9
2018-06-08T15:15:55.677Z,95379.1
2018-06-08T15:20:52.040Z,95380.9
2018-06-08T15:25:48.477Z,95388.3
2018-06-08T15:30:45.119Z,95392.2
2018-06-08T15:35:41.491Z,95392.8
2018-06-08T15:40:37.933Z,95366.6
2018-06-08T15:45:34.158Z,95390.1
2018-06-08T15:50:30.754Z,95390.4
2018-06-08T15:55:27.197Z,95400.7
2018-06-08T16:00:23.051Z,95401.6
2018-06-08T16:05:19.278Z,95417.1
2018-06-08T16:10:16.175Z,95387
2018-06-08T16:15:12.998Z,95409.9
2018-06-08T16:20:09.175Z,95417.2
2018-06-08T16:25:05.781Z,95418.1
2018-06-08T16:30:02.461Z,95420.1
2018-06-08T16:34:58.893Z,95417.9
2018-06-08T16:39:55.633Z,95060.5
2018-06-08T16:44:52.003Z,95415.9
2018-06-08T16:49:48.396Z,95412.3
2018-06-08T16:54:45.183Z,95414.6
2018-06-08T16:59:41.756Z,95412.1
2018-06-08T17:04:38.771Z,95408.5
2018-06-08T17:09:35.330Z,95413.4
2018-06-08T17:14:31.885Z,95404
2018-06-08T17:19:28.469Z,95398.8
2018-06-08T17:24:24.889Z,95367
2018-06-08T17:29:20.991Z,95393.3
2018-06-08T17:34:17.619Z,95393.2
2018-06-08T17:39:14.112Z,95385.3
2018-06-08T17:44:10.528Z,95384.3
2018-06-08T17:49:07.048Z,95292.3
2018-06-08T17:54:03.723Z,95367.7
2018-06-08T17:59:00.397Z,95359.9
2018-06-08T18:03:56.825Z,95350
2018-06-08T18:08:52.803Z,95351.4
2018-06-08T18:13:49.283Z,95269.4
2018-06-08T18:18:46.147Z,95263.5
2018-06-08T18:23:42.514Z,95268.6
2018-06-08T18:28:38.282Z,95360.4
2018-06-08T18:33:35.036Z,95360.9
2018-06-08T18:38:31.696Z,95358.4
2018-06-08T18:43:28.641Z,95359.8
2018-06-08T18:48:24.695Z,95281.6
2018-06-08T18:53:21.401Z,95348.4
2018-06-08T18:58:18.066Z,95338.6
2018-06-08T19:03:14.826Z,95255
2018-06-08T19:08:11.522Z,95334.6
2018-06-08T19:13:08.199Z,95341.5
2018-06-08T19:18:04.745Z,95345.2
2018-06-08T19:23:01.378Z,95270.8
2018-06-08T19:27:57.666Z,95348.1
2018-06-08T19:32:54.537Z,95276.6
2018-06-08T19:37:50.649Z,95245.9
2018-06-08T19:42:47.352Z,95291.5
2018-06-08T19:47:43.963Z,95389.6
2018-06-08T19:52:40.165Z,95455.6
2018-06-08T19:57:36.811Z,95317.1
2018-06-08T20:02:33.494Z,95393
2018-06-08T20:07:29.941Z,95320.1
2018-06-08T20:12:26.319Z,95402
2018-06-08T20:17:22.947Z,95351
2018-06-08T20:22:19.510Z,95399.4
2018-06-08T20:27:16.290Z,95407
2018-06-08T20:32:12.967Z,95412.6
2018-06-08T20:37:09.705Z,95409.1
2018-06-08T20:42:06.203Z,95369.2
2018-06-08T20:47:02.905Z,95318.4
2018-06-08T20:51:59.480Z,95395.2
2018-06-08T20:56:56.148Z,95449.2
2018-06-08T21:01:52.679Z,95389.3
2018-06-08T21:06:49.190Z,95397.1
2018-06-08T21:11:45.331Z,95382.8
2018-06-08T21:16:41.956Z,95358.1
2018-06-08T21:21:38.477Z,95301.6
2018-06-08T21:26:34.780Z,95383.4
2018-06-08T21:31:31.377Z,95453.2
2018-06-08T21:36:27.801Z,95362.8
2018-06-08T21:41:24.251Z,95433.1
2018-06-08T21:46:20.815Z,95415.5
2018-06-08T21:51:17.297Z,95348.7
2018-06-08T21:56:13.639Z,95416.1
2018-06-08T22:01:10.041Z,95346.9
2018-06-08T22:06:06.534Z,95346.3
2018-06-08T22:11:03.040Z,95345.2
2018-06-08T22:15:59.166Z,95390.8
2018-06-08T22:20:55.725Z,95412.2
2018-06-08T22:25:51.890Z,95326.1
2018-06-08T22:30:48.471Z,95320.4
2018-06-08T22:35:44.968Z,95321.5
2018-06-08T22:40:41.682Z,95385.2
2018-06-08T22:45:38.400Z,95370.8
2018-06-08T22:50:34.911Z,95314.1
2018-06-08T22:55:31.774Z,95381
2018-06-08T23:00:28.752Z,95378.6
2018-06-08T23:05:25.061Z,95298.6
2018-06-08T23:10:21.606Z,95295.7
2018-06-08T23:15:18.336Z,95291.7
2018-06-08T23:20:14.717Z,95287.5
2018-06-08T23:25:11.298Z,95286.2
2018-06-08T23:30:07.520Z,95277.5
2018-06-08T23:35:08.109Z,95275.6
2018-06-08T23:40:02.845Z,95337.7
2018-06-08T23:44:59.754Z,95275.8
2018-06-08T23:49:56.263Z,95280.5
2018-06-08T23:54:52.849Z,95272
2018-06-08T23:59:49.104Z,95341.6
